sensor_id;sensor_type;location;lat;lon;timestamp;pressure;altitude;pressure_sealevel;temperature;humidity
9893;BME280;4985;49.092;8.542;2023-02-20T00:02:07;100467.63;;;14.87;54.58
9893;BME280;4985;49.092;8.542;2023-02-20T00:04:33;100461.34;;;14.88;54.57
9893;BME280;4985;49.092;8.542;2023-02-20T00:07:00;100458.84;;;14.87;54.59
9893;BME280;4985;49.092;8.542;2023-02-20T00:09:26;100456.84;;;14.89;54.58
9893;BME280;4985;49.092;8.542;2023-02-20T00:11:53;100449.91;;;14.88;54.58
9893;BME280;4985;49.092;8.542;2023-02-20T00:14:19;100463.97;;;14.88;54.58
9893;BME280;4985;49.092;8.542;2023-02-20T00:16:46;100456.84;;;14.89;54.58
9893;BME280;4985;49.092;8.542;2023-02-20T00:19:14;100459.69;;;14.87;54.58
9893;BME280;4985;49.092;8.542;2023-02-20T00:21:44;100463.00;;;14.89;54.57
9893;BME280;4985;49.092;8.542;2023-02-20T00:24:11;100471.09;;;14.88;54.55
9893;BME280;4985;49.092;8.542;2023-02-20T00:26:38;100462.16;;;14.89;54.56
9893;BME280;4985;49.092;8.542;2023-02-20T00:29:04;100476.41;;;14.88;54.57
9893;BME280;4985;49.092;8.542;2023-02-20T00:31:31;100475.59;;;14.87;54.58
9893;BME280;4985;49.092;8.542;2023-02-20T00:33:57;100485.19;;;14.88;54.57
9893;BME280;4985;49.092;8.542;2023-02-20T00:36:25;100479.22;;;14.86;54.58
9893;BME280;4985;49.092;8.542;2023-02-20T00:38:52;100481.88;;;14.86;54.61
9893;BME280;4985;49.092;8.542;2023-02-20T00:41:18;100480.87;;;14.87;54.61
9893;BME280;4985;49.092;8.542;2023-02-20T00:43:46;100473.94;;;14.86;54.59
9893;BME280;4985;49.092;8.542;2023-02-20T00:46:13;100479.22;;;14.86;54.60
9893;BME280;4985;49.092;8.542;2023-02-20T00:48:40;100473.94;;;14.86;54.58
9893;BME280;4985;49.092;8.542;2023-02-20T00:51:06;100476.56;;;14.86;54.60
9893;BME280;4985;49.092;8.542;2023-02-20T00:53:34;100464.94;;;14.79;54.58
9893;BME280;4985;49.092;8.542;2023-02-20T00:56:01;100479.22;;;14.86;54.58
9893;BME280;4985;49.092;8.542;2023-02-20T00:58:27;100484.53;;;14.86;54.60
9893;BME280;4985;49.092;8.542;2023-02-20T01:00:54;100482.88;;;14.85;54.60
9893;BME280;4985;49.092;8.542;2023-02-20T01:03:20;100479.22;;;14.86;54.58
9893;BME280;4985;49.092;8.542;2023-02-20T01:05:47;100479.22;;;14.86;54.57
9893;BME280;4985;49.092;8.542;2023-02-20T01:08:13;100474.91;;;14.85;54.56
9893;BME280;4985;49.092;8.542;2023-02-20T01:10:41;100469.62;;;14.85;54.57
9893;BME280;4985;49.092;8.542;2023-02-20T01:13:08;100465.97;;;14.86;54.56
9893;BME280;4985;49.092;8.542;2023-02-20T01:15:34;100466.12;;;14.84;54.56
9893;BME280;4985;49.092;8.542;2023-02-20T01:18:02;100466.97;;;14.85;54.56
9893;BME280;4985;49.092;8.542;2023-02-20T01:20:30;100461.13;;;14.81;54.56
9893;BME280;4985;49.092;8.542;2023-02-20T01:22:56;100459.84;;;14.85;54.57
9893;BME280;4985;49.092;8.542;2023-02-20T01:25:23;100466.97;;;14.85;54.56
9893;BME280;4985;49.092;8.542;2023-02-20T01:27:51;100466.97;;;14.85;54.55
9893;BME280;4985;49.092;8.542;2023-02-20T01:30:18;100469.62;;;14.85;54.55
9893;BME280;4985;49.092;8.542;2023-02-20T01:32:44;100464.31;;;14.85;54.54
9893;BME280;4985;49.092;8.542;2023-02-20T01:35:11;100452.72;;;14.86;54.54
9893;BME280;4985;49.092;8.542;2023-02-20T01:37:38;100455.53;;;14.84;54.54
9893;BME280;4985;49.092;8.542;2023-02-20T01:40:05;100461.66;;;14.85;54.54
9893;BME280;4985;49.092;8.542;2023-02-20T01:42:33;100463.50;;;14.84;54.53
9893;BME280;4985;49.092;8.542;2023-02-20T01:45:26;100458.03;;;14.86;54.51
9893;BME280;4985;49.092;8.542;2023-02-20T01:47:55;100457.19;;;14.85;54.50
9893;BME280;4985;49.092;8.542;2023-02-20T01:50:24;100442.41;;;14.75;54.51
9893;BME280;4985;49.092;8.542;2023-02-20T01:52:55;100463.31;;;14.86;54.52
9893;BME280;4985;49.092;8.542;2023-02-20T01:55:27;100457.19;;;14.85;54.50
9893;BME280;4985;49.092;8.542;2023-02-20T01:57:57;100450.22;;;14.84;54.48
9893;BME280;4985;49.092;8.542;2023-02-20T02:00:25;100457.19;;;14.85;54.49
9893;BME280;4985;49.092;8.542;2023-02-20T02:02:55;100460.66;;;14.86;54.49
9893;BME280;4985;49.092;8.542;2023-02-20T02:05:22;100445.75;;;14.85;54.47
9893;BME280;4985;49.092;8.542;2023-02-20T02:07:50;100444.09;;;14.84;54.48
9893;BME280;4985;49.092;8.542;2023-02-20T02:10:19;100445.75;;;14.85;54.47
9893;BME280;4985;49.092;8.542;2023-02-20T02:12:50;100442.12;;;14.86;54.47
9893;BME280;4985;49.092;8.542;2023-02-20T02:15:20;100445.75;;;14.85;54.47
9893;BME280;4985;49.092;8.542;2023-02-20T02:18:02;100436.81;;;14.86;54.49
9893;BME280;4985;49.092;8.542;2023-02-20T02:26:50;100436.81;;;14.86;54.45
9893;BME280;4985;49.092;8.542;2023-02-20T02:30:01;100426.22;;;14.86;54.43
9893;BME280;4985;49.092;8.542;2023-02-20T02:38:45;100433.34;;;14.85;54.42
9893;BME280;4985;49.092;8.542;2023-02-20T02:41:18;100443.09;;;14.85;54.44
9893;BME280;4985;49.092;8.542;2023-02-20T02:43:49;100435.97;;;14.85;54.44
9893;BME280;4985;49.092;8.542;2023-02-20T02:46:23;100431.50;;;14.86;54.42
9893;BME280;4985;49.092;8.542;2023-02-20T02:48:57;100430.69;;;14.85;54.40
9893;BME280;4985;49.092;8.542;2023-02-20T02:51:29;100428.19;;;14.84;54.39
9893;BME280;4985;49.092;8.542;2023-02-20T02:54:10;100430.69;;;14.85;54.41
9893;BME280;4985;49.092;8.542;2023-02-20T02:56:38;100431.50;;;14.86;54.40
9893;BME280;4985;49.092;8.542;2023-02-20T02:59:06;100408.28;;;14.80;54.39
9893;BME280;4985;49.092;8.542;2023-02-20T03:01:38;100428.19;;;14.84;54.40
9893;BME280;4985;49.092;8.542;2023-02-20T03:04:09;100423.72;;;14.84;54.41
9893;BME280;4985;49.092;8.542;2023-02-20T03:06:38;100427.19;;;14.85;54.41
9893;BME280;4985;49.092;8.542;2023-02-20T03:09:12;100421.91;;;14.85;54.40
9893;BME280;4985;49.092;8.542;2023-02-20T03:11:41;100422.91;;;14.84;54.39
9893;BME280;4985;49.092;8.542;2023-02-20T03:14:11;100417.59;;;14.84;54.40
9893;BME280;4985;49.092;8.542;2023-02-20T03:17:02;100414.94;;;14.84;54.39
9893;BME280;4985;49.092;8.542;2023-02-20T03:19:35;100412.28;;;14.84;54.38
9893;BME280;4985;49.092;8.542;2023-02-20T03:22:06;100417.91;;;14.81;54.39
9893;BME280;4985;49.092;8.542;2023-02-20T03:24:38;100418.72;;;14.81;54.39
9893;BME280;4985;49.092;8.542;2023-02-20T03:27:20;100419.25;;;14.85;54.38
9893;BME280;4985;49.092;8.542;2023-02-20T03:29:48;100420.25;;;14.84;54.39
9893;BME280;4985;49.092;8.542;2023-02-20T03:32:19;100421.22;;;14.83;54.38
9893;BME280;4985;49.092;8.542;2023-02-20T03:35:05;100422.03;;;14.83;54.36
9893;BME280;4985;49.092;8.542;2023-02-20T03:37:50;100416.59;;;14.85;54.35
9893;BME280;4985;49.092;8.542;2023-02-20T03:40:38;100416.72;;;14.83;54.36
9893;BME280;4985;49.092;8.542;2023-02-20T03:43:23;100421.22;;;14.83;54.39
9893;BME280;4985;49.092;8.542;2023-02-20T03:45:56;100411.59;;;14.82;54.40
9893;BME280;4985;49.092;8.542;2023-02-20T03:48:26;100416.06;;;14.81;54.39
9893;BME280;4985;49.092;8.542;2023-02-20T03:50:55;100410.78;;;14.81;54.39
9893;BME280;4985;49.092;8.542;2023-02-20T03:53:22;100413.25;;;14.83;54.38
9893;BME280;4985;49.092;8.542;2023-02-20T03:55:52;100412.59;;;14.81;54.35
9893;BME280;4985;49.092;8.542;2023-02-20T03:58:22;100410.59;;;14.83;54.36
9893;BME280;4985;49.092;8.542;2023-02-20T04:00:51;100406.47;;;14.80;54.36
9893;BME280;4985;49.092;8.542;2023-02-20T04:03:21;100406.28;;;14.82;54.35
9893;BME280;4985;49.092;8.542;2023-02-20T04:05:52;100402.97;;;14.80;54.35
9893;BME280;4985;49.092;8.542;2023-02-20T04:08:22;100407.13;;;14.82;54.35
9893;BME280;4985;49.092;8.542;2023-02-20T04:10:56;100413.41;;;14.81;54.38
9893;BME280;4985;49.092;8.542;2023-02-20T04:13:24;100403.66;;;14.82;54.36
9893;BME280;4985;49.092;8.542;2023-02-20T04:15:52;100390.06;;;14.77;54.36
9893;BME280;4985;49.092;8.542;2023-02-20T04:18:20;100391.38;;;14.81;54.37
9893;BME280;4985;49.092;8.542;2023-02-20T04:20:51;100393.37;;;14.79;54.38
9893;BME280;4985;49.092;8.542;2023-02-20T04:23:20;100397.69;;;14.80;54.38
9893;BME280;4985;49.092;8.542;2023-02-20T04:25:51;100392.38;;;14.80;54.38
9893;BME280;4985;49.092;8.542;2023-02-20T04:28:20;100394.53;;;14.76;54.39
9893;BME280;4985;49.092;8.542;2023-02-20T04:30:49;100400.66;;;14.77;54.40
9893;BME280;4985;49.092;8.542;2023-02-20T04:33:16;100398.69;;;14.79;54.40
9893;BME280;4985;49.092;8.542;2023-02-20T04:35:43;100396.19;;;14.77;54.42
9893;BME280;4985;49.092;8.542;2023-02-20T04:38:10;100388.41;;;14.76;54.42
9893;BME280;4985;49.092;8.542;2023-02-20T04:40:37;100397.19;;;14.76;54.44
9893;BME280;4985;49.092;8.542;2023-02-20T04:43:04;100404.47;;;14.74;54.47
9893;BME280;4985;49.092;8.542;2023-02-20T04:45:32;100402.66;;;14.75;54.47
9893;BME280;4985;49.092;8.542;2023-02-20T04:47:59;100393.06;;;14.74;54.48
9893;BME280;4985;49.092;8.542;2023-02-20T04:50:27;100402.81;;;14.73;54.49
9893;BME280;4985;49.092;8.542;2023-02-20T04:52:54;100409.94;;;14.73;54.50
9893;BME280;4985;49.092;8.542;2023-02-20T04:55:22;100407.28;;;14.73;54.50
9893;BME280;4985;49.092;8.542;2023-02-20T04:57:49;100408.12;;;14.73;54.51
9893;BME280;4985;49.092;8.542;2023-02-20T05:00:18;100405.59;;;14.72;54.52
9893;BME280;4985;49.092;8.542;2023-02-20T05:02:46;100409.13;;;14.72;54.53
9893;BME280;4985;49.092;8.542;2023-02-20T05:05:15;100408.25;;;14.72;54.53
9893;BME280;4985;49.092;8.542;2023-02-20T05:07:43;100408.25;;;14.72;54.52
9893;BME280;4985;49.092;8.542;2023-02-20T05:10:12;100403.81;;;14.72;54.52
9893;BME280;4985;49.092;8.542;2023-02-20T05:12:39;100408.25;;;14.72;54.51
9893;BME280;4985;49.092;8.542;2023-02-20T05:15:06;100403.97;;;14.71;54.54
9893;BME280;4985;49.092;8.542;2023-02-20T05:17:33;100404.13;;;14.69;54.55
9893;BME280;4985;49.092;8.542;2023-02-20T05:20:01;100394.34;;;14.70;54.56
9893;BME280;4985;49.092;8.542;2023-02-20T05:22:27;100395.34;;;14.69;54.57
9893;BME280;4985;49.092;8.542;2023-02-20T05:24:53;100400.66;;;14.69;54.57
9893;BME280;4985;49.092;8.542;2023-02-20T05:27:21;100391.88;;;14.68;54.57
9893;BME280;4985;49.092;8.542;2023-02-20T05:29:49;100397.34;;;14.67;54.60
9893;BME280;4985;49.092;8.542;2023-02-20T05:32:17;100399.97;;;14.67;54.60
9893;BME280;4985;49.092;8.542;2023-02-20T05:34:44;100405.28;;;14.67;54.60
9893;BME280;4985;49.092;8.542;2023-02-20T05:37:13;100404.47;;;14.66;54.60
9893;BME280;4985;49.092;8.542;2023-02-20T05:39:41;100400.31;;;14.64;54.59
9893;BME280;4985;49.092;8.542;2023-02-20T05:42:08;100417.72;;;14.66;54.60
9893;BME280;4985;49.092;8.542;2023-02-20T05:44:34;100410.59;;;14.67;54.61
9893;BME280;4985;49.092;8.542;2023-02-20T05:47:02;100408.94;;;14.66;54.61
9893;BME280;4985;49.092;8.542;2023-02-20T05:49:29;100407.28;;;14.65;54.60
9893;BME280;4985;49.092;8.542;2023-02-20T05:51:57;100404.47;;;14.66;54.60
9893;BME280;4985;49.092;8.542;2023-02-20T05:54:25;100405.28;;;14.67;54.60
9893;BME280;4985;49.092;8.542;2023-02-20T05:56:51;100406.09;;;14.67;54.57
9893;BME280;4985;49.092;8.542;2023-02-20T05:59:20;100405.12;;;14.68;54.54
9893;BME280;4985;49.092;8.542;2023-02-20T06:01:48;100413.06;;;14.68;54.52
9893;BME280;4985;49.092;8.542;2023-02-20T06:04:16;100408.44;;;14.70;54.49
9893;BME280;4985;49.092;8.542;2023-02-20T06:06:43;100403.97;;;14.71;54.45
9893;BME280;4985;49.092;8.542;2023-02-20T06:09:11;100397.16;;;14.68;54.43
9893;BME280;4985;49.092;8.542;2023-02-20T06:11:47;100406.59;;;14.71;54.43
9893;BME280;4985;49.092;8.542;2023-02-20T06:14:15;100396.84;;;14.71;54.42
9893;BME280;4985;49.092;8.542;2023-02-20T06:16:43;100400.31;;;14.72;54.38
9893;BME280;4985;49.092;8.542;2023-02-20T06:19:10;100392.34;;;14.72;54.37
9893;BME280;4985;49.092;8.542;2023-02-20T06:21:37;100395.00;;;14.72;54.38
9893;BME280;4985;49.092;8.542;2023-02-20T06:24:05;100403.97;;;14.71;54.38
9893;BME280;4985;49.092;8.542;2023-02-20T06:26:38;100401.31;;;14.71;54.38
9893;BME280;4985;49.092;8.542;2023-02-20T06:29:06;100402.13;;;14.71;54.38
9893;BME280;4985;49.092;8.542;2023-02-20T06:31:32;100410.91;;;14.72;54.36
9893;BME280;4985;49.092;8.542;2023-02-20T06:33:59;100406.47;;;14.72;54.36
9893;BME280;4985;49.092;8.542;2023-02-20T06:36:29;100409.13;;;14.72;54.34
9893;BME280;4985;49.092;8.542;2023-02-20T06:38:56;100404.66;;;14.73;54.31
9893;BME280;4985;49.092;8.542;2023-02-20T06:41:23;100408.12;;;14.73;54.29
9893;BME280;4985;49.092;8.542;2023-02-20T06:43:49;100409.94;;;14.73;54.30
9893;BME280;4985;49.092;8.542;2023-02-20T06:46:17;100400.31;;;14.72;54.32
9893;BME280;4985;49.092;8.542;2023-02-20T06:48:45;100410.91;;;14.72;54.31
9893;BME280;4985;49.092;8.542;2023-02-20T06:51:11;100409.94;;;14.73;54.27
9893;BME280;4985;49.092;8.542;2023-02-20T06:53:38;100407.97;;;14.75;54.24
9893;BME280;4985;49.092;8.542;2023-02-20T06:56:08;100404.47;;;14.74;54.23
9893;BME280;4985;49.092;8.542;2023-02-20T06:58:35;100407.97;;;14.75;54.21
9893;BME280;4985;49.092;8.542;2023-02-20T07:01:02;100412.25;;;14.76;54.18
9893;BME280;4985;49.092;8.542;2023-02-20T07:03:30;100407.97;;;14.75;54.17
9893;BME280;4985;49.092;8.542;2023-02-20T07:05:56;100415.91;;;14.75;54.17
9893;BME280;4985;49.092;8.542;2023-02-20T07:08:23;100416.56;;;14.77;54.16
9893;BME280;4985;49.092;8.542;2023-02-20T07:10:50;100410.78;;;14.73;54.14
9893;BME280;4985;49.092;8.542;2023-02-20T07:13:19;100409.63;;;14.76;54.13
9893;BME280;4985;49.092;8.542;2023-02-20T07:15:46;100418.56;;;14.75;54.16
9893;BME280;4985;49.092;8.542;2023-02-20T07:18:12;100421.38;;;14.73;54.19
9893;BME280;4985;49.092;8.542;2023-02-20T07:20:40;100419.56;;;14.74;54.17
9893;BME280;4985;49.092;8.542;2023-02-20T07:23:07;100427.34;;;14.75;54.16
9893;BME280;4985;49.092;8.542;2023-02-20T07:25:34;100415.91;;;14.75;54.15
9893;BME280;4985;49.092;8.542;2023-02-20T07:28:00;100415.91;;;14.75;54.15
9893;BME280;4985;49.092;8.542;2023-02-20T07:30:27;100413.44;;;14.73;54.17
9893;BME280;4985;49.092;8.542;2023-02-20T07:32:53;100414.41;;;14.72;54.19
9893;BME280;4985;49.092;8.542;2023-02-20T07:35:20;100420.56;;;14.73;54.20
9893;BME280;4985;49.092;8.542;2023-02-20T07:37:48;100425.16;;;14.71;54.21
9893;BME280;4985;49.092;8.542;2023-02-20T07:40:14;100420.84;;;14.70;54.25
9893;BME280;4985;49.092;8.542;2023-02-20T07:42:41;100425.31;;;14.69;54.27
9893;BME280;4985;49.092;8.542;2023-02-20T07:45:09;100424.50;;;14.69;54.30
9893;BME280;4985;49.092;8.542;2023-02-20T07:47:36;100426.16;;;14.70;54.28
9893;BME280;4985;49.092;8.542;2023-02-20T07:50:03;100429.78;;;14.69;54.30
9893;BME280;4985;49.092;8.542;2023-02-20T07:52:29;100435.09;;;14.69;54.33
9893;BME280;4985;49.092;8.542;2023-02-20T07:54:57;100429.78;;;14.69;54.29
9893;BME280;4985;49.092;8.542;2023-02-20T07:57:24;100433.94;;;14.71;54.25
9893;BME280;4985;49.092;8.542;2023-02-20T07:59:50;100427.81;;;14.71;54.24
9893;BME280;4985;49.092;8.542;2023-02-20T08:02:17;100433.13;;;14.71;54.22
9893;BME280;4985;49.092;8.542;2023-02-20T08:04:43;100436.09;;;14.68;54.24
9893;BME280;4985;49.092;8.542;2023-02-20T08:07:10;100436.75;;;14.70;54.25
9893;BME280;4985;49.092;8.542;2023-02-20T08:09:37;100436.75;;;14.70;54.25
9893;BME280;4985;49.092;8.542;2023-02-20T08:12:05;100440.22;;;14.70;54.25
9893;BME280;4985;49.092;8.542;2023-02-20T08:14:31;100440.41;;;14.69;54.27
9893;BME280;4985;49.092;8.542;2023-02-20T08:16:58;100438.75;;;14.68;54.32
9893;BME280;4985;49.092;8.542;2023-02-20T08:19:24;100435.44;;;14.66;54.32
9893;BME280;4985;49.092;8.542;2023-02-20T08:21:51;100434.59;;;14.65;54.35
9893;BME280;4985;49.092;8.542;2023-02-20T08:24:17;100427.66;;;14.64;54.39
9893;BME280;4985;49.092;8.542;2023-02-20T08:26:44;100424.16;;;14.64;54.42
9893;BME280;4985;49.092;8.542;2023-02-20T08:29:13;100421.50;;;14.64;54.40
9893;BME280;4985;49.092;8.542;2023-02-20T08:31:40;100420.69;;;14.63;54.42
9893;BME280;4985;49.092;8.542;2023-02-20T08:34:06;100416.37;;;14.62;54.44
9893;BME280;4985;49.092;8.542;2023-02-20T08:36:33;100410.25;;;14.62;54.47
9893;BME280;4985;49.092;8.542;2023-02-20T08:39:00;100412.38;;;14.58;54.48
9893;BME280;4985;49.092;8.542;2023-02-20T08:41:27;100416.50;;;14.61;54.51
9893;BME280;4985;49.092;8.542;2023-02-20T08:43:54;100413.19;;;14.59;54.54
9893;BME280;4985;49.092;8.542;2023-02-20T08:46:22;100412.38;;;14.58;54.56
9893;BME280;4985;49.092;8.542;2023-02-20T08:48:49;100418.50;;;14.59;54.57
9893;BME280;4985;49.092;8.542;2023-02-20T08:51:18;100411.53;;;14.57;54.58
9893;BME280;4985;49.092;8.542;2023-02-20T08:53:44;100411.53;;;14.57;54.60
9893;BME280;4985;49.092;8.542;2023-02-20T08:56:11;100417.84;;;14.56;54.60
9893;BME280;4985;49.092;8.542;2023-02-20T08:58:38;100417.84;;;14.56;54.60
9893;BME280;4985;49.092;8.542;2023-02-20T09:01:04;100416.03;;;14.57;54.61
9893;BME280;4985;49.092;8.542;2023-02-20T09:03:32;100413.53;;;14.55;54.61
9893;BME280;4985;49.092;8.542;2023-02-20T09:06:03;100404.59;;;14.56;54.64
9893;BME280;4985;49.092;8.542;2023-02-20T09:08:29;100404.75;;;14.55;54.66
9893;BME280;4985;49.092;8.542;2023-02-20T09:10:56;100402.94;;;14.55;54.68
9893;BME280;4985;49.092;8.542;2023-02-20T09:13:23;100402.78;;;14.57;54.66
9893;BME280;4985;49.092;8.542;2023-02-20T09:15:49;100400.94;;;14.57;54.65
9893;BME280;4985;49.092;8.542;2023-02-20T09:18:16;100398.28;;;14.57;54.65
9893;BME280;4985;49.092;8.542;2023-02-20T09:20:44;100405.41;;;14.57;54.67
9893;BME280;4985;49.092;8.542;2023-02-20T09:23:12;100399.28;;;14.56;54.68
9893;BME280;4985;49.092;8.542;2023-02-20T09:25:39;100394.81;;;14.57;54.72
9893;BME280;4985;49.092;8.542;2023-02-20T09:28:05;100384.38;;;14.55;54.74
9893;BME280;4985;49.092;8.542;2023-02-20T09:30:33;100386.88;;;14.57;54.73
9893;BME280;4985;49.092;8.542;2023-02-20T09:32:59;100380.75;;;14.56;54.76
9893;BME280;4985;49.092;8.542;2023-02-20T09:35:28;100379.09;;;14.55;54.76
9893;BME280;4985;49.092;8.542;2023-02-20T09:37:56;100381.75;;;14.55;54.80
9893;BME280;4985;49.092;8.542;2023-02-20T09:40:25;100377.44;;;14.54;54.80
9893;BME280;4985;49.092;8.542;2023-02-20T09:43:15;100380.09;;;14.54;54.80
9893;BME280;4985;49.092;8.542;2023-02-20T09:45:50;100384.56;;;14.54;54.82
9893;BME280;4985;49.092;8.542;2023-02-20T09:48:30;100380.09;;;14.54;54.83
9893;BME280;4985;49.092;8.542;2023-02-20T09:51:02;100369.47;;;14.54;54.83
9893;BME280;4985;49.092;8.542;2023-02-20T09:53:34;100367.00;;;14.53;54.84
9893;BME280;4985;49.092;8.542;2023-02-20T09:56:03;100364.19;;;14.54;54.84
9893;BME280;4985;49.092;8.542;2023-02-20T09:58:39;100364.19;;;14.54;54.83
9893;BME280;4985;49.092;8.542;2023-02-20T10:01:07;100348.28;;;14.54;54.81
9893;BME280;4985;49.092;8.542;2023-02-20T10:03:50;100348.63;;;14.51;54.79
9893;BME280;4985;49.092;8.542;2023-02-20T10:06:18;100361.53;;;14.54;54.81
9893;BME280;4985;49.092;8.542;2023-02-20T10:08:48;100358.87;;;14.54;54.83
9893;BME280;4985;49.092;8.542;2023-02-20T10:11:25;100356.22;;;14.54;54.82
9893;BME280;4985;49.092;8.542;2023-02-20T10:14:02;100340.34;;;14.54;54.82
9893;BME280;4985;49.092;8.542;2023-02-20T10:16:40;100338.69;;;14.53;54.83
9893;BME280;4985;49.092;8.542;2023-02-20T10:19:16;100329.91;;;14.53;54.85
9893;BME280;4985;49.092;8.542;2023-02-20T10:21:51;100342.31;;;14.52;54.87
9893;BME280;4985;49.092;8.542;2023-02-20T10:24:41;100339.69;;;14.52;54.85
9893;BME280;4985;49.092;8.542;2023-02-20T10:27:21;100328.56;;;14.49;54.86
9893;BME280;4985;49.092;8.542;2023-02-20T10:29:52;100339.69;;;14.52;54.87
9893;BME280;4985;49.092;8.542;2023-02-20T10:32:22;100349.28;;;14.53;54.88
9893;BME280;4985;49.092;8.542;2023-02-20T10:34:57;100344.97;;;14.52;54.90
9893;BME280;4985;49.092;8.542;2023-02-20T10:37:27;100329.38;;;14.49;54.87
9893;BME280;4985;49.092;8.542;2023-02-20T10:40:03;100338.69;;;14.53;54.86
9893;BME280;4985;49.092;8.542;2023-02-20T10:42:34;100340.50;;;14.53;54.87
9893;BME280;4985;49.092;8.542;2023-02-20T10:45:07;100340.50;;;14.53;54.88
9893;BME280;4985;49.092;8.542;2023-02-20T10:47:41;100332.88;;;14.50;54.87
9893;BME280;4985;49.092;8.542;2023-02-20T10:50:14;100338.84;;;14.52;54.89
9893;BME280;4985;49.092;8.542;2023-02-20T10:52:51;100337.03;;;14.52;54.88
9893;BME280;4985;49.092;8.542;2023-02-20T10:55:25;100328.41;;;14.50;54.88
9893;BME280;4985;49.092;8.542;2023-02-20T10:57:56;100321.13;;;14.52;54.87
9893;BME280;4985;49.092;8.542;2023-02-20T11:00:30;100338.69;;;14.53;54.86
9893;BME280;4985;49.092;8.542;2023-02-20T11:03:04;100334.38;;;14.52;54.89
9893;BME280;4985;49.092;8.542;2023-02-20T11:05:36;100330.72;;;14.53;54.88
9893;BME280;4985;49.092;8.542;2023-02-20T11:08:03;100328.09;;;14.53;54.86
9893;BME280;4985;49.092;8.542;2023-02-20T11:10:31;100325.44;;;14.53;54.84
9893;BME280;4985;49.092;8.542;2023-02-20T11:13:00;100323.44;;;14.55;54.83
9893;BME280;4985;49.092;8.542;2023-02-20T11:15:29;100315.50;;;14.55;54.82
9893;BME280;4985;49.092;8.542;2023-02-20T11:17:58;100307.72;;;14.54;54.83
9893;BME280;4985;49.092;8.542;2023-02-20T11:20:41;100306.22;;;14.51;54.84
9893;BME280;4985;49.092;8.542;2023-02-20T11:23:32;100311.34;;;14.53;54.84
9893;BME280;4985;49.092;8.542;2023-02-20T11:26:24;100315.50;;;14.55;54.84
9893;BME280;4985;49.092;8.542;2023-02-20T11:29:03;100296.94;;;14.55;54.82
9893;BME280;4985;49.092;8.542;2023-02-20T11:31:31;100285.50;;;14.55;54.85
9893;BME280;4985;49.092;8.542;2023-02-20T11:34:00;100291.66;;;14.55;54.84
9893;BME280;4985;49.092;8.542;2023-02-20T11:36:33;100282.03;;;14.54;54.85
9893;BME280;4985;49.092;8.542;2023-02-20T11:39:11;100279.41;;;14.54;54.85
9893;BME280;4985;49.092;8.542;2023-02-20T11:41:42;100274.09;;;14.54;54.87
9893;BME280;4985;49.092;8.542;2023-02-20T11:44:24;100263.50;;;14.54;54.87
9893;BME280;4985;49.092;8.542;2023-02-20T11:47:17;100262.66;;;14.54;54.86
9893;BME280;4985;49.092;8.542;2023-02-20T11:49:44;100254.22;;;14.50;54.85
9893;BME280;4985;49.092;8.542;2023-02-20T11:52:16;100257.37;;;14.54;54.88
9893;BME280;4985;49.092;8.542;2023-02-20T11:54:43;100259.84;;;14.55;54.88
9893;BME280;4985;49.092;8.542;2023-02-20T11:57:22;100259.84;;;14.55;54.88
9893;BME280;4985;49.092;8.542;2023-02-20T12:00:08;100244.94;;;14.54;54.86
9893;BME280;4985;49.092;8.542;2023-02-20T12:02:35;100234.34;;;14.54;54.85
9893;BME280;4985;49.092;8.542;2023-02-20T12:05:05;100225.41;;;14.55;54.87
9893;BME280;4985;49.092;8.542;2023-02-20T12:07:35;100222.75;;;14.55;54.87
9893;BME280;4985;49.092;8.542;2023-02-20T12:10:09;100219.94;;;14.57;54.86
9893;BME280;4985;49.092;8.542;2023-02-20T12:12:42;100212.16;;;14.55;54.85
9893;BME280;4985;49.092;8.542;2023-02-20T12:15:12;100203.22;;;14.56;54.83
9893;BME280;4985;49.092;8.542;2023-02-20T12:17:48;100206.03;;;14.55;54.84
9893;BME280;4985;49.092;8.542;2023-02-20T12:20:21;100204.84;;;14.57;54.83
9893;BME280;4985;49.092;8.542;2023-02-20T12:22:58;100205.69;;;14.58;54.84
9893;BME280;4985;49.092;8.542;2023-02-20T12:25:35;100195.25;;;14.56;54.83
9893;BME280;4985;49.092;8.542;2023-02-20T12:28:08;100185.31;;;14.59;54.83
9893;BME280;4985;49.092;8.542;2023-02-20T12:30:56;100186.97;;;14.60;54.81
9893;BME280;4985;49.092;8.542;2023-02-20T12:33:47;100192.25;;;14.60;54.82
9893;BME280;4985;49.092;8.542;2023-02-20T12:36:26;100182.66;;;14.59;54.83
9893;BME280;4985;49.092;8.542;2023-02-20T12:38:56;100182.66;;;14.59;54.83
9893;BME280;4985;49.092;8.542;2023-02-20T12:41:30;100185.47;;;14.57;54.83
9893;BME280;4985;49.092;8.542;2023-02-20T12:44:13;100187.78;;;14.60;54.82
9893;BME280;4985;49.092;8.542;2023-02-20T12:46:52;100179.03;;;14.60;54.82
9893;BME280;4985;49.092;8.542;2023-02-20T12:49:40;100180.66;;;14.61;54.81
9893;BME280;4985;49.092;8.542;2023-02-20T12:55:07;100172.72;;;14.61;54.79
9893;BME280;4985;49.092;8.542;2023-02-20T12:57:43;100168.09;;;14.63;54.76
9893;BME280;4985;49.092;8.542;2023-02-20T13:00:28;100162.63;;;14.64;54.75
9893;BME280;4985;49.092;8.542;2023-02-20T13:03:00;100160.16;;;14.63;54.77
9893;BME280;4985;49.092;8.542;2023-02-20T13:05:31;100159.16;;;14.64;54.76
9893;BME280;4985;49.092;8.542;2023-02-20T13:08:03;100136.97;;;14.65;54.75
9893;BME280;4985;49.092;8.542;2023-02-20T13:10:32;100135.31;;;14.64;54.75
9893;BME280;4985;49.092;8.542;2023-02-20T13:13:00;100130.00;;;14.64;54.76
9893;BME280;4985;49.092;8.542;2023-02-20T13:15:35;100120.41;;;14.63;54.75
9893;BME280;4985;49.092;8.542;2023-02-20T13:18:11;100121.06;;;14.65;54.75
9893;BME280;4985;49.092;8.542;2023-02-20T13:20:45;100116.59;;;14.65;54.74
9893;BME280;4985;49.092;8.542;2023-02-20T13:23:27;100122.72;;;14.66;54.76
9893;BME280;4985;49.092;8.542;2023-02-20T13:25:55;100112.47;;;14.63;54.76
9893;BME280;4985;49.092;8.542;2023-02-20T13:28:38;100117.41;;;14.66;54.76
9893;BME280;4985;49.092;8.542;2023-02-20T13:31:20;100111.28;;;14.65;54.75
9893;BME280;4985;49.092;8.542;2023-02-20T13:33:48;100098.22;;;14.64;54.75
9893;BME280;4985;49.092;8.542;2023-02-20T13:36:38;100094.22;;;14.68;54.74
9893;BME280;4985;49.092;8.542;2023-02-20T13:39:25;100103.00;;;14.68;54.74
9893;BME280;4985;49.092;8.542;2023-02-20T13:41:59;100099.50;;;14.68;54.75
9893;BME280;4985;49.092;8.542;2023-02-20T13:44:36;100090.56;;;14.69;54.72